createdAt,value
2023-01-17T00:00:04.802Z,973.05
2023-01-17T00:01:04.734Z,973.11
2023-01-17T00:02:04.730Z,973.19
2023-01-17T00:03:04.762Z,973.04
2023-01-17T00:04:04.791Z,973.08
2023-01-17T00:05:04.745Z,973.14
2023-01-17T00:06:04.736Z,973.11
2023-01-17T00:07:04.741Z,973.14
2023-01-17T00:08:04.748Z,973.20
2023-01-17T00:09:04.741Z,973.16
2023-01-17T00:10:04.740Z,973.19
2023-01-17T00:11:04.749Z,973.20
2023-01-17T00:12:04.749Z,973.17
2023-01-17T00:13:04.744Z,973.12
2023-01-17T00:14:04.760Z,973.14
2023-01-17T00:15:04.756Z,973.19
2023-01-17T00:16:04.780Z,973.18
2023-01-17T00:17:04.753Z,973.22
2023-01-17T00:18:04.760Z,973.18
2023-01-17T00:19:04.776Z,973.23
2023-01-17T00:20:04.755Z,973.22
2023-01-17T00:21:04.766Z,973.22
2023-01-17T00:22:04.769Z,973.14
2023-01-17T00:23:04.774Z,973.16
2023-01-17T00:24:04.765Z,973.13
2023-01-17T00:25:04.766Z,973.16
2023-01-17T00:26:04.839Z,973.21
2023-01-17T00:27:04.768Z,973.11
2023-01-17T00:28:04.769Z,973.08
2023-01-17T00:29:04.772Z,973.08
2023-01-17T00:30:04.778Z,973.07
2023-01-17T00:31:04.855Z,973.07
2023-01-17T00:32:04.775Z,973.09
2023-01-17T00:33:04.781Z,973.09
2023-01-17T00:34:04.788Z,973.07
2023-01-17T00:35:04.808Z,973.05
2023-01-17T00:36:04.785Z,973.07
2023-01-17T00:37:04.790Z,973.11
2023-01-17T00:38:04.812Z,973.06
2023-01-17T00:39:04.792Z,973.06
2023-01-17T00:40:04.794Z,973.07
2023-01-17T00:41:04.800Z,973.07
2023-01-17T00:42:04.801Z,973.07
2023-01-17T00:43:04.791Z,973.10
2023-01-17T00:44:04.805Z,973.13
2023-01-17T00:45:04.794Z,973.20
2023-01-17T00:46:04.808Z,973.15
2023-01-17T00:47:04.805Z,973.17
2023-01-17T00:48:04.804Z,973.16
2023-01-17T00:49:04.807Z,973.20
2023-01-17T00:50:04.809Z,973.23
2023-01-17T00:51:04.843Z,973.27
2023-01-17T00:52:04.823Z,973.28
2023-01-17T00:53:04.808Z,973.28
2023-01-17T00:54:04.815Z,973.27
2023-01-17T00:55:04.824Z,973.27
2023-01-17T00:56:04.811Z,973.41
2023-01-17T00:57:04.824Z,973.37
2023-01-17T00:58:04.813Z,973.36
2023-01-17T00:59:04.817Z,973.38
2023-01-17T01:00:04.892Z,973.39
2023-01-17T01:01:04.899Z,973.32
2023-01-17T01:02:05.104Z,973.43
2023-01-17T01:03:04.828Z,973.39
2023-01-17T01:04:04.825Z,973.39
2023-01-17T01:05:04.829Z,973.39
2023-01-17T01:06:04.841Z,973.40
2023-01-17T01:07:04.855Z,973.40
2023-01-17T01:08:04.836Z,973.42
2023-01-17T01:09:04.834Z,973.43
2023-01-17T01:10:04.834Z,973.50
2023-01-17T01:11:04.834Z,973.41
2023-01-17T01:12:04.839Z,973.45
2023-01-17T01:13:04.851Z,973.41
2023-01-17T01:14:04.845Z,973.45
2023-01-17T01:15:04.841Z,973.44
2023-01-17T01:16:04.924Z,973.42
2023-01-17T01:17:04.862Z,973.47
2023-01-17T01:18:04.842Z,973.43
2023-01-17T01:19:04.845Z,973.46
2023-01-17T01:20:04.852Z,973.44
2023-01-17T01:21:04.847Z,973.45
2023-01-17T01:22:04.849Z,973.45
2023-01-17T01:23:04.883Z,973.49
2023-01-17T01:24:04.860Z,973.47
2023-01-17T01:25:04.852Z,973.44
2023-01-17T01:26:04.863Z,973.49
2023-01-17T01:27:04.854Z,973.50
2023-01-17T01:28:04.871Z,973.50
2023-01-17T01:29:04.857Z,973.50
2023-01-17T01:30:04.868Z,973.47
2023-01-17T01:31:04.860Z,973.46
2023-01-17T01:32:04.865Z,973.51
2023-01-17T01:33:04.865Z,973.48
2023-01-17T01:34:04.878Z,973.51
2023-01-17T01:35:04.879Z,973.54
2023-01-17T01:36:04.876Z,973.53
2023-01-17T01:37:04.874Z,973.51
2023-01-17T01:38:04.895Z,973.58
2023-01-17T01:39:04.893Z,973.53
2023-01-17T01:40:04.883Z,973.51
2023-01-17T01:41:04.885Z,973.49
2023-01-17T01:42:04.884Z,973.52
2023-01-17T01:43:04.879Z,973.57
2023-01-17T01:44:04.886Z,973.52
2023-01-17T01:45:04.891Z,973.53
2023-01-17T01:46:04.929Z,973.54
2023-01-17T01:47:04.885Z,973.57
2023-01-17T01:48:04.903Z,973.55
2023-01-17T01:49:04.885Z,973.57
2023-01-17T01:50:04.891Z,973.55
2023-01-17T01:51:04.892Z,973.57
2023-01-17T01:52:04.894Z,973.57
2023-01-17T01:53:04.899Z,973.63
2023-01-17T01:54:04.903Z,973.62
2023-01-17T01:55:04.914Z,973.66
2023-01-17T01:56:04.897Z,973.68
2023-01-17T01:57:04.911Z,973.68
2023-01-17T01:58:04.912Z,973.67
2023-01-17T01:59:04.907Z,973.70
2023-01-17T02:00:04.903Z,973.68
2023-01-17T02:01:05.052Z,973.68
2023-01-17T02:02:04.913Z,973.71
2023-01-17T02:03:04.904Z,973.69
2023-01-17T02:04:04.961Z,973.72
2023-01-17T02:05:05.020Z,973.72
2023-01-17T02:06:04.919Z,973.76
2023-01-17T02:07:04.913Z,973.74
2023-01-17T02:08:04.923Z,973.73
2023-01-17T02:09:04.918Z,973.75
2023-01-17T02:10:04.925Z,973.76
2023-01-17T02:11:04.939Z,973.80
2023-01-17T02:12:04.926Z,973.82
2023-01-17T02:13:04.921Z,973.81
2023-01-17T02:14:04.927Z,973.84
2023-01-17T02:15:04.924Z,973.85
2023-01-17T02:16:05.008Z,973.82
2023-01-17T02:17:04.929Z,973.82
2023-01-17T02:18:04.936Z,973.79
2023-01-17T02:19:04.937Z,973.85
2023-01-17T02:20:04.938Z,973.81
2023-01-17T02:21:04.944Z,973.81
2023-01-17T02:22:04.936Z,973.81
2023-01-17T02:23:04.934Z,973.84
2023-01-17T02:24:04.938Z,973.86
2023-01-17T02:25:04.940Z,973.84
2023-01-17T02:26:04.940Z,973.88
2023-01-17T02:27:04.972Z,973.87
2023-01-17T02:28:04.944Z,973.88
2023-01-17T02:29:04.950Z,973.92
2023-01-17T02:30:04.945Z,973.99
2023-01-17T02:31:04.946Z,973.99
2023-01-17T02:32:04.950Z,973.98
2023-01-17T02:33:04.959Z,973.93
2023-01-17T02:34:04.961Z,974.03
2023-01-17T02:35:04.959Z,974.03
2023-01-17T02:36:04.960Z,974.02
2023-01-17T02:37:04.972Z,974.00
2023-01-17T02:38:04.968Z,974.04
2023-01-17T02:39:04.964Z,974.03
2023-01-17T02:40:05.042Z,973.97
2023-01-17T02:41:04.963Z,974.00
2023-01-17T02:42:04.964Z,974.02
2023-01-17T02:43:04.999Z,974.05
2023-01-17T02:44:04.976Z,974.05
2023-01-17T02:45:04.969Z,974.05
2023-01-17T02:46:05.011Z,974.08
2023-01-17T02:47:04.972Z,974.09
2023-01-17T02:48:04.979Z,974.05
2023-01-17T02:49:04.983Z,974.04
2023-01-17T02:50:04.982Z,974.06
2023-01-17T02:51:04.979Z,974.06
2023-01-17T02:52:04.987Z,974.08
2023-01-17T02:53:05.005Z,974.14
2023-01-17T02:54:04.989Z,974.08
2023-01-17T02:55:04.991Z,974.11
2023-01-17T02:56:04.988Z,974.13
2023-01-17T02:57:04.987Z,974.16
2023-01-17T02:58:04.990Z,974.18
2023-01-17T02:59:05.047Z,974.18
2023-01-17T03:00:05.050Z,974.19
2023-01-17T03:01:05.172Z,974.19
2023-01-17T03:02:05.202Z,974.19
2023-01-17T03:03:04.995Z,974.19
2023-01-17T03:04:05.012Z,974.21
2023-01-17T03:05:05.006Z,974.23
2023-01-17T03:06:05.001Z,974.26
2023-01-17T03:07:05.000Z,974.28
2023-01-17T03:08:05.021Z,974.26
2023-01-17T03:09:05.013Z,974.34
2023-01-17T03:10:05.009Z,974.37
2023-01-17T03:11:05.015Z,974.36
2023-01-17T03:12:05.011Z,974.41
2023-01-17T03:13:05.021Z,974.36
2023-01-17T03:14:05.013Z,974.36
2023-01-17T03:15:05.038Z,974.35
2023-01-17T03:16:05.024Z,974.42
2023-01-17T03:17:05.026Z,974.43
2023-01-17T03:18:05.028Z,974.42
2023-01-17T03:19:05.029Z,974.44
2023-01-17T03:20:05.090Z,974.42
2023-01-17T03:21:05.026Z,974.47
2023-01-17T03:22:05.045Z,974.47
2023-01-17T03:23:05.039Z,974.43
2023-01-17T03:24:05.037Z,974.48
2023-01-17T03:25:05.039Z,974.43
2023-01-17T03:26:05.034Z,974.48
2023-01-17T03:27:05.040Z,974.50
2023-01-17T03:28:05.043Z,974.49
2023-01-17T03:29:05.046Z,974.51
2023-01-17T03:30:05.047Z,974.56
2023-01-17T03:31:05.113Z,974.45
2023-01-17T03:32:05.051Z,974.62
2023-01-17T03:33:05.051Z,974.56
2023-01-17T03:34:05.057Z,974.52
2023-01-17T03:35:05.048Z,974.62
2023-01-17T03:36:05.051Z,974.76
2023-01-17T03:37:05.054Z,974.72
2023-01-17T03:38:05.060Z,974.64
2023-01-17T03:39:05.052Z,974.73
2023-01-17T03:40:05.141Z,974.72
2023-01-17T03:41:05.069Z,974.73
2023-01-17T03:42:05.068Z,974.75
2023-01-17T03:43:05.058Z,974.79
2023-01-17T03:44:05.067Z,974.86
2023-01-17T03:45:05.075Z,974.81
2023-01-17T03:46:05.098Z,974.86
2023-01-17T03:47:05.112Z,974.83
2023-01-17T03:48:05.075Z,974.87
2023-01-17T03:49:05.071Z,974.93
2023-01-17T03:50:05.078Z,974.87
2023-01-17T03:51:05.073Z,974.95
2023-01-17T03:52:05.081Z,974.96
2023-01-17T03:53:05.090Z,974.99
2023-01-17T03:54:05.076Z,975.01
2023-01-17T03:55:05.104Z,975.04
2023-01-17T03:56:05.079Z,975.10
2023-01-17T03:57:05.083Z,975.05
2023-01-17T03:58:05.090Z,975.11
2023-01-17T03:59:05.101Z,975.14
2023-01-17T04:00:05.104Z,975.16
2023-01-17T04:01:05.252Z,975.14
2023-01-17T04:02:05.276Z,975.20
2023-01-17T04:03:05.124Z,975.18
2023-01-17T04:04:05.099Z,975.21
2023-01-17T04:05:05.105Z,975.21
2023-01-17T04:06:05.105Z,975.20
2023-01-17T04:07:05.096Z,975.22
2023-01-17T04:08:05.123Z,975.26
2023-01-17T04:09:05.102Z,975.27
2023-01-17T04:10:05.158Z,975.29
2023-01-17T04:11:05.105Z,975.24
2023-01-17T04:12:05.106Z,975.28
2023-01-17T04:13:05.114Z,975.29
2023-01-17T04:14:05.108Z,975.40
2023-01-17T04:15:05.123Z,975.31
2023-01-17T04:16:05.118Z,975.28
2023-01-17T04:17:05.116Z,975.28
2023-01-17T04:18:05.116Z,975.34
2023-01-17T04:19:05.151Z,975.36
2023-01-17T04:20:05.123Z,975.41
2023-01-17T04:21:05.130Z,975.38
2023-01-17T04:22:05.134Z,975.39
2023-01-17T04:23:05.142Z,975.40
2023-01-17T04:24:05.136Z,975.42
2023-01-17T04:25:05.135Z,975.48
2023-01-17T04:26:05.129Z,975.44
2023-01-17T04:27:05.147Z,975.46
2023-01-17T04:28:05.139Z,975.50
2023-01-17T04:29:05.139Z,975.46
2023-01-17T04:30:05.137Z,975.49
2023-01-17T04:31:05.202Z,975.47
2023-01-17T04:32:05.145Z,975.47
2023-01-17T04:33:05.145Z,975.50
2023-01-17T04:34:05.148Z,975.52
2023-01-17T04:35:05.169Z,975.49
2023-01-17T04:36:05.151Z,975.51
2023-01-17T04:37:05.146Z,975.47
2023-01-17T04:38:05.153Z,975.56
2023-01-17T04:39:05.148Z,975.52
2023-01-17T04:40:05.159Z,975.60
2023-01-17T04:41:05.162Z,975.56
2023-01-17T04:42:05.157Z,975.56
2023-01-17T04:43:05.162Z,975.59
2023-01-17T04:44:05.162Z,975.66
2023-01-17T04:45:05.168Z,975.63
2023-01-17T04:46:05.243Z,975.66
2023-01-17T04:47:05.176Z,975.69
2023-01-17T04:48:05.160Z,975.64
2023-01-17T04:49:05.182Z,975.65
2023-01-17T04:50:05.170Z,975.63
2023-01-17T04:51:05.186Z,975.69
2023-01-17T04:52:05.172Z,975.67
2023-01-17T04:53:05.205Z,975.74
2023-01-17T04:54:05.173Z,975.70
2023-01-17T04:55:05.181Z,975.70
2023-01-17T04:56:05.173Z,975.68
2023-01-17T04:57:05.172Z,975.71
2023-01-17T04:58:05.182Z,975.71
2023-01-17T04:59:05.189Z,975.71
2023-01-17T05:00:05.199Z,975.74
2023-01-17T05:01:05.242Z,975.71
2023-01-17T05:02:05.273Z,975.67
2023-01-17T05:03:05.191Z,975.71
2023-01-17T05:04:05.185Z,975.72
2023-01-17T05:05:05.185Z,975.72
2023-01-17T05:06:05.196Z,975.77
2023-01-17T05:07:05.216Z,975.74
2023-01-17T05:08:05.199Z,975.78
2023-01-17T05:09:05.199Z,975.79
2023-01-17T05:10:05.201Z,975.75
2023-01-17T05:11:05.201Z,975.78
2023-01-17T05:12:05.203Z,975.82
2023-01-17T05:13:05.198Z,975.84
2023-01-17T05:14:05.201Z,975.85
2023-01-17T05:15:05.199Z,975.88
2023-01-17T05:16:05.228Z,975.89
2023-01-17T05:17:05.205Z,975.87
2023-01-17T05:18:05.214Z,975.93
2023-01-17T05:19:05.204Z,975.89
2023-01-17T05:20:05.209Z,975.93
2023-01-17T05:21:05.209Z,975.94
2023-01-17T05:22:05.218Z,975.90
2023-01-17T05:23:05.238Z,975.94
2023-01-17T05:24:05.220Z,975.98
2023-01-17T05:25:05.228Z,975.97
2023-01-17T05:26:05.219Z,975.97
2023-01-17T05:27:05.218Z,976.00
2023-01-17T05:28:05.219Z,976.05
2023-01-17T05:29:05.228Z,976.05
2023-01-17T05:30:05.231Z,976.08
2023-01-17T05:31:05.329Z,976.08
2023-01-17T05:32:05.233Z,976.07
2023-01-17T05:33:05.228Z,976.08
2023-01-17T05:34:05.264Z,976.16
2023-01-17T05:35:05.237Z,976.13
2023-01-17T05:36:05.237Z,976.16
2023-01-17T05:37:05.242Z,976.19
2023-01-17T05:38:05.247Z,976.21
2023-01-17T05:39:05.255Z,976.25
2023-01-17T05:40:05.262Z,976.23
2023-01-17T05:41:05.237Z,976.25
2023-01-17T05:42:05.246Z,976.27
2023-01-17T05:43:05.239Z,976.28
2023-01-17T05:44:05.251Z,976.32
2023-01-17T05:45:05.251Z,976.32
2023-01-17T05:46:05.276Z,976.34
2023-01-17T05:47:05.247Z,976.31
2023-01-17T05:48:05.247Z,976.30
2023-01-17T05:49:05.257Z,976.38
2023-01-17T05:50:05.254Z,976.38
2023-01-17T05:51:05.251Z,976.40
2023-01-17T05:52:05.262Z,976.40
2023-01-17T05:53:05.263Z,976.48
2023-01-17T05:54:05.270Z,976.48
2023-01-17T05:55:05.278Z,976.50
2023-01-17T05:56:05.270Z,976.51
2023-01-17T05:57:05.261Z,976.47
2023-01-17T05:58:05.282Z,976.56
2023-01-17T05:59:05.298Z,976.60
2023-01-17T06:00:05.266Z,976.62
2023-01-17T06:01:05.292Z,976.64
2023-01-17T06:02:05.272Z,976.67
2023-01-17T06:03:05.271Z,976.66
2023-01-17T06:04:05.281Z,976.73
2023-01-17T06:05:05.283Z,976.69
2023-01-17T06:06:05.282Z,976.72
2023-01-17T06:07:05.281Z,976.71
2023-01-17T06:08:05.285Z,976.69
2023-01-17T06:09:05.284Z,976.73
2023-01-17T06:10:05.297Z,976.73
2023-01-17T06:11:05.303Z,976.72
2023-01-17T06:12:05.301Z,976.77
2023-01-17T06:13:05.285Z,976.78
2023-01-17T06:14:05.284Z,976.75
2023-01-17T06:15:05.289Z,976.80
2023-01-17T06:16:05.395Z,976.79
2023-01-17T06:17:05.287Z,976.86
2023-01-17T06:18:05.298Z,976.81
2023-01-17T06:19:05.303Z,976.84
2023-01-17T06:20:05.294Z,976.92
2023-01-17T06:21:05.292Z,976.85
2023-01-17T06:22:05.299Z,976.91
2023-01-17T06:23:05.301Z,976.92
2023-01-17T06:24:05.294Z,976.95
2023-01-17T06:25:05.300Z,976.96
2023-01-17T06:26:05.319Z,976.98
2023-01-17T06:27:05.330Z,977.01
2023-01-17T06:28:05.308Z,977.03
2023-01-17T06:29:05.308Z,977.04
2023-01-17T06:30:05.323Z,976.99
2023-01-17T06:31:05.322Z,977.01
2023-01-17T06:32:05.307Z,977.01
2023-01-17T06:33:05.313Z,977.00
2023-01-17T06:34:05.309Z,976.98
2023-01-17T06:35:05.315Z,976.97
2023-01-17T06:36:05.314Z,976.98
2023-01-17T06:37:05.320Z,977.06
2023-01-17T06:38:05.320Z,977.07
2023-01-17T06:39:05.314Z,977.06
2023-01-17T06:40:05.314Z,977.06
2023-01-17T06:41:05.334Z,977.12
2023-01-17T06:42:05.327Z,977.11
2023-01-17T06:43:05.371Z,977.13
2023-01-17T06:44:05.333Z,977.11
2023-01-17T06:45:05.328Z,977.12
2023-01-17T06:46:05.330Z,977.09
2023-01-17T06:47:05.324Z,977.16
2023-01-17T06:48:05.503Z,977.15
2023-01-17T06:49:05.335Z,977.15
2023-01-17T06:50:05.342Z,977.19
2023-01-17T06:51:05.338Z,977.26
2023-01-17T06:52:05.330Z,977.25
2023-01-17T06:53:05.335Z,977.31
2023-01-17T06:54:05.343Z,977.36
2023-01-17T06:55:05.343Z,977.40
2023-01-17T06:56:05.337Z,977.40
2023-01-17T06:57:05.344Z,977.45
2023-01-17T06:58:05.345Z,977.46
2023-01-17T06:59:05.390Z,977.52
2023-01-17T07:00:05.342Z,977.53
2023-01-17T07:01:05.463Z,977.50
2023-01-17T07:02:05.348Z,977.56
2023-01-17T07:03:05.352Z,977.58
2023-01-17T07:04:05.402Z,977.62
2023-01-17T07:05:05.355Z,977.66
2023-01-17T07:06:05.359Z,977.68
2023-01-17T07:07:05.364Z,977.70
2023-01-17T07:08:05.355Z,977.72
2023-01-17T07:09:05.362Z,977.76
2023-01-17T07:10:05.397Z,977.80
2023-01-17T07:11:05.362Z,977.83
2023-01-17T07:12:05.359Z,977.80
2023-01-17T07:13:05.360Z,977.88
2023-01-17T07:14:05.357Z,977.83
2023-01-17T07:15:05.398Z,977.93
2023-01-17T07:16:05.413Z,977.92
2023-01-17T07:17:05.366Z,977.99
2023-01-17T07:18:05.372Z,977.97
2023-01-17T07:19:05.368Z,978.02
2023-01-17T07:20:05.365Z,978.05
2023-01-17T07:21:05.374Z,978.05
2023-01-17T07:22:05.379Z,978.09
2023-01-17T07:23:05.383Z,978.11
2023-01-17T07:24:05.367Z,978.15
2023-01-17T07:25:05.369Z,978.14
2023-01-17T07:26:05.385Z,978.19
2023-01-17T07:27:05.373Z,978.24
2023-01-17T07:28:05.386Z,978.25
2023-01-17T07:29:05.405Z,978.24
2023-01-17T07:30:05.385Z,978.25
2023-01-17T07:31:05.446Z,978.37
2023-01-17T07:32:05.385Z,978.38
2023-01-17T07:33:05.380Z,978.42
2023-01-17T07:34:05.404Z,978.44
2023-01-17T07:35:05.390Z,978.45
2023-01-17T07:36:05.382Z,978.48
2023-01-17T07:37:05.389Z,978.55
2023-01-17T07:38:05.395Z,978.50
2023-01-17T07:39:06.393Z,978.58
2023-01-17T07:40:05.397Z,978.56
2023-01-17T07:41:05.390Z,978.56
2023-01-17T07:42:05.397Z,978.62
2023-01-17T07:43:05.388Z,978.63
2023-01-17T07:44:05.405Z,978.67
2023-01-17T07:45:05.397Z,978.65
2023-01-17T07:46:05.404Z,978.68
2023-01-17T07:47:05.435Z,978.74
2023-01-17T07:48:05.396Z,978.79
2023-01-17T07:49:05.405Z,978.85
2023-01-17T07:50:05.487Z,978.76
2023-01-17T07:51:05.413Z,978.71
2023-01-17T07:52:05.405Z,978.65
2023-01-17T07:53:05.410Z,978.70
2023-01-17T07:54:05.408Z,978.73
2023-01-17T07:55:05.414Z,978.78
2023-01-17T07:56:05.438Z,978.77
2023-01-17T07:57:05.408Z,978.80
2023-01-17T07:58:05.416Z,978.80
2023-01-17T07:59:05.410Z,978.83
2023-01-17T08:00:05.419Z,978.83
2023-01-17T08:01:05.608Z,978.83
2023-01-17T08:02:05.476Z,978.85
2023-01-17T08:03:05.446Z,978.87
2023-01-17T08:04:05.455Z,978.91
2023-01-17T08:05:05.427Z,978.82
2023-01-17T08:06:05.428Z,978.88
2023-01-17T08:07:05.429Z,978.89
2023-01-17T08:08:05.441Z,978.91
2023-01-17T08:09:05.428Z,978.87
2023-01-17T08:10:05.422Z,978.95
2023-01-17T08:11:05.421Z,978.93
2023-01-17T08:12:05.432Z,978.98
2023-01-17T08:13:05.438Z,978.98
2023-01-17T08:14:05.434Z,979.01
2023-01-17T08:15:05.433Z,979.05
2023-01-17T08:16:05.507Z,979.05
2023-01-17T08:17:05.436Z,979.06
2023-01-17T08:18:05.441Z,979.08
2023-01-17T08:19:05.450Z,979.09
2023-01-17T08:20:05.432Z,979.09
2023-01-17T08:21:05.442Z,979.10
2023-01-17T08:22:05.453Z,979.11
2023-01-17T08:23:05.445Z,979.16
2023-01-17T08:24:05.436Z,979.16
2023-01-17T08:25:05.437Z,979.20
2023-01-17T08:26:05.441Z,979.23
2023-01-17T08:27:05.447Z,979.26
2023-01-17T08:28:05.451Z,979.25
2023-01-17T08:29:05.442Z,979.26
2023-01-17T08:30:05.459Z,979.27
2023-01-17T08:31:05.444Z,979.26
2023-01-17T08:32:05.448Z,979.30
2023-01-17T08:33:05.447Z,979.30
2023-01-17T08:34:05.451Z,979.36
2023-01-17T08:35:05.483Z,979.35
2023-01-17T08:36:05.466Z,979.32
2023-01-17T08:37:05.461Z,979.36
2023-01-17T08:38:05.468Z,979.37
2023-01-17T08:39:05.464Z,979.42
2023-01-17T08:40:05.472Z,979.48
2023-01-17T08:41:05.459Z,979.44
2023-01-17T08:42:05.469Z,979.48
2023-01-17T08:43:05.461Z,979.45
2023-01-17T08:44:05.470Z,979.48
2023-01-17T08:45:06.196Z,979.51
2023-01-17T08:46:05.526Z,979.51
2023-01-17T08:47:05.473Z,979.59
2023-01-17T08:48:05.477Z,979.53
2023-01-17T08:49:05.501Z,979.57
2023-01-17T08:50:05.482Z,979.62
2023-01-17T08:51:05.500Z,979.66
2023-01-17T08:52:05.484Z,979.66
2023-01-17T08:53:05.487Z,979.66
2023-01-17T08:54:05.487Z,979.63
2023-01-17T08:55:05.503Z,979.62
2023-01-17T08:56:05.507Z,979.63
2023-01-17T08:57:05.486Z,979.67
2023-01-17T08:58:05.497Z,979.72
2023-01-17T08:59:05.494Z,979.69
2023-01-17T09:00:05.488Z,979.73
2023-01-17T09:01:05.705Z,979.68
2023-01-17T09:02:05.707Z,979.78
2023-01-17T09:03:05.494Z,979.76
2023-01-17T09:04:05.585Z,979.75
2023-01-17T09:05:05.502Z,979.78
2023-01-17T09:06:05.515Z,979.77
2023-01-17T09:07:05.545Z,979.89
2023-01-17T09:08:05.526Z,979.88
2023-01-17T09:09:05.523Z,979.87
2023-01-17T09:10:05.535Z,979.89
2023-01-17T09:11:05.556Z,979.93
2023-01-17T09:12:05.535Z,979.94
2023-01-17T09:13:05.526Z,979.96
2023-01-17T09:14:05.523Z,979.96
2023-01-17T09:15:05.522Z,979.99
2023-01-17T09:16:05.543Z,979.97
2023-01-17T09:17:05.520Z,979.95
2023-01-17T09:18:05.523Z,979.99
2023-01-17T09:19:05.526Z,979.95
2023-01-17T09:20:05.526Z,980.08
2023-01-17T09:21:05.535Z,980.04
2023-01-17T09:22:05.539Z,980.11
2023-01-17T09:23:05.564Z,980.07
2023-01-17T09:24:05.534Z,980.11
2023-01-17T09:25:05.535Z,980.13
2023-01-17T09:26:05.550Z,980.14
2023-01-17T09:27:05.546Z,980.14
2023-01-17T09:28:05.566Z,980.22
2023-01-17T09:29:05.550Z,980.20
2023-01-17T09:30:05.546Z,980.28
2023-01-17T09:31:05.600Z,980.28
2023-01-17T09:32:05.552Z,980.29
2023-01-17T09:33:05.552Z,980.34
2023-01-17T09:34:05.563Z,980.32
2023-01-17T09:35:05.569Z,980.37
2023-01-17T09:36:05.563Z,980.40
2023-01-17T09:37:05.568Z,980.39
2023-01-17T09:38:05.572Z,980.39
2023-01-17T09:39:05.618Z,980.42
2023-01-17T09:40:05.566Z,980.41
2023-01-17T09:41:05.581Z,980.44
2023-01-17T09:42:05.586Z,980.45
2023-01-17T09:43:05.581Z,980.50
2023-01-17T09:44:05.581Z,980.44
2023-01-17T09:45:05.591Z,980.46
2023-01-17T09:46:05.665Z,980.46
2023-01-17T09:47:05.627Z,980.46
2023-01-17T09:48:05.583Z,980.43
2023-01-17T09:49:05.587Z,980.49
2023-01-17T09:50:05.598Z,980.46
2023-01-17T09:51:05.593Z,980.49
2023-01-17T09:52:05.596Z,980.59
2023-01-17T09:53:05.611Z,980.53
2023-01-17T09:54:05.606Z,980.54
2023-01-17T09:55:07.891Z,980.56
2023-01-17T09:56:05.623Z,980.60
2023-01-17T09:57:05.611Z,980.56
2023-01-17T09:58:05.607Z,980.63
2023-01-17T09:59:05.614Z,980.63
2023-01-17T10:00:05.610Z,980.61
2023-01-17T10:01:05.748Z,980.63
2023-01-17T10:02:05.915Z,980.73
2023-01-17T10:03:05.778Z,980.72
2023-01-17T10:04:05.660Z,980.68
2023-01-17T10:05:05.757Z,980.69
2023-01-17T10:06:05.623Z,980.67
2023-01-17T10:07:05.693Z,980.73
2023-01-17T10:08:05.638Z,980.77
2023-01-17T10:09:05.645Z,980.81
2023-01-17T10:10:05.637Z,980.71
2023-01-17T10:11:05.677Z,980.72
2023-01-17T10:12:05.644Z,980.74
2023-01-17T10:13:05.643Z,980.75
2023-01-17T10:14:05.652Z,980.74
2023-01-17T10:15:05.653Z,980.73
2023-01-17T10:16:05.648Z,980.72
2023-01-17T10:17:05.652Z,980.70
2023-01-17T10:18:05.664Z,980.73
2023-01-17T10:19:05.666Z,980.78
2023-01-17T10:20:05.666Z,980.74
2023-01-17T10:21:05.672Z,980.72
2023-01-17T10:22:05.661Z,980.82
2023-01-17T10:23:05.672Z,980.71
2023-01-17T10:24:05.666Z,980.70
2023-01-17T10:25:05.679Z,980.71
2023-01-17T10:26:05.693Z,980.68
2023-01-17T10:27:05.786Z,980.66
2023-01-17T10:28:05.688Z,980.71
2023-01-17T10:29:05.688Z,980.71
2023-01-17T10:30:05.700Z,980.66
2023-01-17T10:31:05.723Z,980.73
2023-01-17T10:32:05.690Z,980.68
2023-01-17T10:33:05.696Z,980.72
2023-01-17T10:34:05.704Z,980.75
2023-01-17T10:35:05.701Z,980.72
2023-01-17T10:36:05.701Z,980.76
2023-01-17T10:37:05.705Z,980.78
2023-01-17T10:38:05.707Z,980.76
2023-01-17T10:39:05.711Z,980.88
2023-01-17T10:40:05.717Z,980.76
2023-01-17T10:41:05.724Z,980.80
2023-01-17T10:42:05.716Z,980.86
2023-01-17T10:43:05.750Z,980.84
2023-01-17T10:44:05.717Z,980.80
2023-01-17T10:45:05.723Z,980.77
2023-01-17T10:46:05.776Z,980.77
2023-01-17T10:47:05.727Z,980.83
2023-01-17T10:48:05.743Z,980.84
2023-01-17T10:49:05.740Z,980.81
2023-01-17T10:50:05.755Z,980.83
2023-01-17T10:51:05.739Z,980.86
2023-01-17T10:52:05.747Z,980.88
2023-01-17T10:53:05.751Z,980.85
2023-01-17T10:54:05.749Z,980.95
2023-01-17T10:55:05.773Z,980.79
2023-01-17T10:56:05.756Z,980.86
2023-01-17T10:57:05.757Z,980.88
2023-01-17T10:58:05.761Z,980.84
2023-01-17T10:59:05.802Z,980.85
2023-01-17T11:00:05.768Z,980.86
2023-01-17T11:01:05.847Z,980.82
2023-01-17T11:02:05.982Z,980.83
2023-01-17T11:03:05.807Z,980.88
2023-01-17T11:04:05.799Z,980.89
2023-01-17T11:05:05.782Z,980.86
2023-01-17T11:06:05.787Z,980.89
2023-01-17T11:07:05.789Z,980.91
2023-01-17T11:08:05.791Z,980.84
2023-01-17T11:09:05.803Z,980.86
2023-01-17T11:10:05.814Z,980.90
2023-01-17T11:11:05.804Z,980.89
2023-01-17T11:12:05.806Z,980.85
2023-01-17T11:13:05.843Z,980.89
2023-01-17T11:14:05.822Z,980.92
2023-01-17T11:15:05.860Z,980.86
2023-01-17T11:16:05.988Z,980.86
2023-01-17T11:17:05.838Z,980.93
2023-01-17T11:18:05.868Z,980.88
2023-01-17T11:19:05.834Z,980.81
2023-01-17T11:20:05.852Z,980.90
2023-01-17T11:21:05.855Z,980.86
2023-01-17T11:22:05.861Z,980.80
2023-01-17T11:23:05.876Z,980.71
2023-01-17T11:24:05.870Z,980.81
2023-01-17T11:25:05.880Z,980.80
2023-01-17T11:26:05.882Z,980.80
2023-01-17T11:27:05.878Z,980.77
2023-01-17T11:28:05.886Z,980.73
2023-01-17T11:29:05.891Z,980.76
2023-01-17T11:30:05.907Z,980.81
2023-01-17T11:31:06.002Z,980.77
2023-01-17T11:32:05.910Z,980.76
2023-01-17T11:33:05.924Z,980.75
2023-01-17T11:34:05.921Z,980.75
2023-01-17T11:35:05.928Z,980.77
2023-01-17T11:36:05.931Z,980.77
2023-01-17T11:37:05.939Z,980.74
2023-01-17T11:38:05.947Z,980.79
2023-01-17T11:39:05.950Z,980.78
2023-01-17T11:40:05.954Z,980.83
2023-01-17T11:41:05.959Z,980.85
2023-01-17T11:42:05.976Z,980.80
2023-01-17T11:43:05.974Z,980.80
2023-01-17T11:45:05.990Z,980.78
2023-01-17T11:46:06.056Z,980.76
2023-01-17T11:47:06.029Z,980.80
2023-01-17T11:48:06.005Z,980.82
2023-01-17T11:49:06.012Z,980.79
2023-01-17T11:50:06.027Z,980.75
2023-01-17T11:51:06.030Z,980.72
2023-01-17T11:52:06.041Z,980.69
2023-01-17T11:53:06.049Z,980.74
2023-01-17T11:54:06.059Z,980.71
2023-01-17T11:55:06.068Z,980.69
2023-01-17T11:56:06.073Z,980.69
2023-01-17T11:57:06.073Z,980.66
2023-01-17T11:58:06.085Z,980.65
2023-01-17T11:59:06.093Z,980.72
2023-01-17T12:00:10.136Z,980.72
2023-01-17T12:01:06.114Z,980.78
2023-01-17T12:02:06.104Z,980.72
2023-01-17T12:03:06.146Z,980.77
2023-01-17T12:04:06.171Z,980.81
2023-01-17T12:05:06.200Z,980.70
2023-01-17T12:06:06.131Z,980.80
2023-01-17T12:07:06.152Z,980.76
2023-01-17T12:08:06.148Z,980.66
2023-01-17T12:09:06.154Z,980.78
2023-01-17T12:10:06.167Z,980.71
2023-01-17T12:11:06.171Z,980.80
2023-01-17T12:12:06.183Z,980.84
2023-01-17T12:13:06.199Z,980.73
2023-01-17T12:14:06.195Z,980.86
2023-01-17T12:15:06.190Z,980.84
2023-01-17T12:16:06.249Z,980.86
2023-01-17T12:17:06.213Z,980.82
2023-01-17T12:18:06.216Z,980.86
2023-01-17T12:19:06.262Z,980.82
2023-01-17T12:20:06.317Z,980.87
2023-01-17T12:21:06.237Z,980.86
2023-01-17T12:22:06.254Z,980.90
2023-01-17T12:23:06.250Z,980.93
2023-01-17T12:24:10.095Z,980.85
2023-01-17T12:25:08.898Z,980.92
2023-01-17T12:26:06.285Z,980.84
2023-01-17T12:27:06.312Z,980.86
2023-01-17T12:28:06.303Z,980.79
2023-01-17T12:29:06.309Z,980.79